createdAt,value
2023-05-13T00:01:41.010Z,16.50
2023-05-13T00:04:08.248Z,13.13
2023-05-13T00:06:35.731Z,14.80
2023-05-13T00:09:02.791Z,20.85
2023-05-13T00:11:29.182Z,16.35
2023-05-13T00:13:56.681Z,18.58
2023-05-13T00:16:24.683Z,18.58
2023-05-13T00:18:51.216Z,17.92
2023-05-13T00:21:17.604Z,18.48
2023-05-13T00:23:44.598Z,15.50
2023-05-13T00:26:11.345Z,18.35
2023-05-13T00:28:37.710Z,18.70
2023-05-13T00:31:04.120Z,21.15
2023-05-13T00:33:30.519Z,19.48
2023-05-13T00:35:57.188Z,17.13
2023-05-13T00:38:23.589Z,21.45
2023-05-13T00:40:50.763Z,21.58
2023-05-13T00:43:17.189Z,19.45
2023-05-13T00:45:43.601Z,20.92
2023-05-13T00:48:10.348Z,18.98
2023-05-13T00:50:36.761Z,20.80
2023-05-13T00:53:06.652Z,18.05
2023-05-13T00:55:33.071Z,20.35
2023-05-13T00:58:00.259Z,21.65
2023-05-13T01:00:28.375Z,19.70
2023-05-13T01:03:02.681Z,21.10
2023-05-13T01:05:38.129Z,21.40
2023-05-13T01:08:16.729Z,22.17
2023-05-13T01:10:48.922Z,23.33
2023-05-13T01:13:20.560Z,23.23
2023-05-13T01:15:51.984Z,21.88
2023-05-13T01:18:22.669Z,24.42
2023-05-13T01:20:49.418Z,27.15
2023-05-13T01:23:16.386Z,25.55
2023-05-13T01:25:42.664Z,25.73
2023-05-13T01:28:09.424Z,25.90
2023-05-13T01:30:36.290Z,27.15
2023-05-13T01:33:03.073Z,26.73
2023-05-13T01:35:30.946Z,29.02
2023-05-13T01:37:57.633Z,25.65
2023-05-13T01:42:57.193Z,31.95
2023-05-13T01:45:23.511Z,25.38
2023-05-13T01:47:49.867Z,30.63
2023-05-13T01:50:16.185Z,27.20
2023-05-13T01:52:42.470Z,27.42
2023-05-13T01:55:09.165Z,27.60
2023-05-13T01:57:36.140Z,29.02
2023-05-13T02:00:03.454Z,24.73
2023-05-13T02:02:29.768Z,29.50
2023-05-13T02:04:56.122Z,26.52
2023-05-13T02:07:22.411Z,27.50
2023-05-13T02:09:48.684Z,29.05
2023-05-13T02:12:17.753Z,31.95
2023-05-13T02:14:44.681Z,30.63
2023-05-13T02:17:11.017Z,31.45
2023-05-13T02:19:37.310Z,28.83
2023-05-13T02:22:03.998Z,31.13
2023-05-13T02:24:30.648Z,32.13
2023-05-13T02:26:56.957Z,36.53
2023-05-13T02:29:23.256Z,31.67
2023-05-13T02:31:50.259Z,33.25
2023-05-13T02:34:16.544Z,29.48
2023-05-13T02:36:42.867Z,36.08
2023-05-13T02:39:09.128Z,37.20
2023-05-13T02:41:35.425Z,30.55
2023-05-13T02:44:01.720Z,31.60
2023-05-13T02:46:28.072Z,34.42
2023-05-13T02:48:55.050Z,33.97
2023-05-13T02:51:21.395Z,36.38
2023-05-13T02:53:47.908Z,31.65
2023-05-13T02:56:15.562Z,32.50
2023-05-13T02:58:41.868Z,35.58
2023-05-13T03:01:08.217Z,31.17
2023-05-13T03:03:34.736Z,31.92
2023-05-13T03:06:01.760Z,32.15
2023-05-13T03:08:28.058Z,35.88
2023-05-13T03:10:54.772Z,34.20
2023-05-13T03:13:21.166Z,34.63
2023-05-13T03:15:47.479Z,32.67
2023-05-13T03:18:13.760Z,34.58
2023-05-13T03:20:40.081Z,34.58
2023-05-13T03:23:07.040Z,31.02
2023-05-13T03:25:33.412Z,32.42
2023-05-13T03:27:59.917Z,34.72
2023-05-13T03:30:26.334Z,37.55
2023-05-13T03:32:52.791Z,39.80
2023-05-13T03:35:23.490Z,36.63
2023-05-13T03:37:49.765Z,35.47
2023-05-13T03:40:16.946Z,33.60
2023-05-13T03:42:43.318Z,32.97
2023-05-13T03:45:10.764Z,35.33
2023-05-13T03:47:38.400Z,33.40
2023-05-13T03:50:05.502Z,33.80
2023-05-13T03:52:31.788Z,30.25
2023-05-13T03:55:00.230Z,30.23
2023-05-13T03:57:27.139Z,30.17
2023-05-13T03:59:53.453Z,34.38
2023-05-13T04:02:21.005Z,33.67
2023-05-13T04:04:47.353Z,34.67
2023-05-13T04:07:13.682Z,34.55
2023-05-13T04:09:39.997Z,32.03
2023-05-13T04:12:06.702Z,35.15
2023-05-13T04:14:34.317Z,34.95
2023-05-13T04:17:00.712Z,36.75
2023-05-13T04:19:27.157Z,33.30
2023-05-13T04:21:53.403Z,34.40
2023-05-13T04:24:21.419Z,38.90
2023-05-13T04:26:47.749Z,35.08
2023-05-13T04:29:17.308Z,35.90
2023-05-13T04:31:44.400Z,34.05
2023-05-13T04:34:10.668Z,42.28
2023-05-13T04:36:36.974Z,34.22
2023-05-13T04:39:03.396Z,35.15
2023-05-13T04:41:29.719Z,34.13
2023-05-13T04:43:56.028Z,34.42
2023-05-13T04:46:22.450Z,37.80
2023-05-13T04:48:49.484Z,39.17
2023-05-13T04:51:16.381Z,32.85
2023-05-13T04:53:43.033Z,38.60
2023-05-13T04:56:09.276Z,34.75
2023-05-13T04:58:35.536Z,35.70
2023-05-13T05:01:01.784Z,36.08
2023-05-13T05:03:28.151Z,34.60
2023-05-13T05:05:55.080Z,32.47
2023-05-13T05:08:21.396Z,34.60
2023-05-13T05:10:47.677Z,30.67
2023-05-13T05:13:14.177Z,35.78
2023-05-13T05:15:40.932Z,32.30
2023-05-13T05:18:07.339Z,36.00
2023-05-13T05:20:33.691Z,32.60
2023-05-13T05:23:00.759Z,30.70
2023-05-13T05:25:27.106Z,30.45
2023-05-13T05:27:53.597Z,28.95
2023-05-13T05:30:20.326Z,31.15
2023-05-13T05:32:46.880Z,28.88
2023-05-13T05:35:15.074Z,33.63
2023-05-13T05:37:41.365Z,32.22
2023-05-13T05:40:09.668Z,33.30
2023-05-13T05:42:35.991Z,31.83
2023-05-13T05:45:02.312Z,32.50
2023-05-13T05:47:28.638Z,35.13
2023-05-13T05:49:57.827Z,33.28
2023-05-13T05:52:24.121Z,31.65
2023-05-13T05:54:50.403Z,31.67
2023-05-13T05:57:17.384Z,33.30
2023-05-13T05:59:43.700Z,28.02
2023-05-13T06:02:10.093Z,33.28
2023-05-13T06:04:36.422Z,31.88
2023-05-13T06:07:05.299Z,38.05
2023-05-13T06:09:31.666Z,29.48
2023-05-13T06:11:57.957Z,27.38
2023-05-13T06:14:24.904Z,27.17
2023-05-13T06:16:52.479Z,31.75
2023-05-13T06:19:19.867Z,33.28
2023-05-13T06:21:46.183Z,30.75
2023-05-13T06:24:12.488Z,28.90
2023-05-13T06:26:38.799Z,28.50
2023-05-13T06:29:05.142Z,27.67
2023-05-13T06:31:32.165Z,25.95
2023-05-13T06:33:58.486Z,28.15
2023-05-13T06:36:25.364Z,25.65
2023-05-13T06:38:53.296Z,27.05
2023-05-13T06:41:19.956Z,27.35
2023-05-13T06:43:48.053Z,25.70
2023-05-13T06:46:14.418Z,26.75
2023-05-13T06:48:44.311Z,27.95
2023-05-13T06:51:10.582Z,24.67
2023-05-13T06:53:36.871Z,28.48
2023-05-13T06:56:03.326Z,30.80
2023-05-13T06:58:29.615Z,26.92
2023-05-13T07:00:55.933Z,28.27
2023-05-13T07:03:22.755Z,28.40
2023-05-13T07:05:49.727Z,28.90
2023-05-13T07:08:17.225Z,27.58
2023-05-13T07:10:43.637Z,31.20
2023-05-13T07:13:10.906Z,29.30
2023-05-13T07:15:40.226Z,29.35
2023-05-13T07:18:06.867Z,32.58
2023-05-13T07:20:33.252Z,34.28
2023-05-13T07:23:00.247Z,32.95
2023-05-13T07:25:26.693Z,31.13
2023-05-13T07:27:52.989Z,29.13
2023-05-13T07:30:19.470Z,33.83
2023-05-13T07:32:45.803Z,32.72
2023-05-13T07:35:12.316Z,31.77
2023-05-13T07:37:38.653Z,34.38
2023-05-13T07:40:08.458Z,32.75
2023-05-13T07:42:34.987Z,33.00
2023-05-13T07:45:01.379Z,32.22
2023-05-13T07:47:28.321Z,31.38
2023-05-13T07:49:54.634Z,30.55
2023-05-13T07:52:20.989Z,29.30
2023-05-13T07:54:47.645Z,33.08
2023-05-13T07:57:14.643Z,28.27
2023-05-13T07:59:42.757Z,27.38
2023-05-13T08:02:10.910Z,29.55
2023-05-13T08:04:37.272Z,28.80
2023-05-13T08:07:04.239Z,30.20
2023-05-13T08:09:30.623Z,30.67
2023-05-13T08:11:57.224Z,31.10
2023-05-13T08:14:24.186Z,26.60
2023-05-13T08:16:50.559Z,25.38
2023-05-13T08:19:17.130Z,26.60
2023-05-13T08:21:43.760Z,24.42
2023-05-13T08:24:10.096Z,28.38
2023-05-13T08:26:37.367Z,24.50
2023-05-13T08:29:03.681Z,22.67
2023-05-13T08:31:31.495Z,21.23
2023-05-13T08:33:57.814Z,20.67
2023-05-13T08:36:25.265Z,23.95
2023-05-13T08:38:51.614Z,22.92
2023-05-13T08:41:19.350Z,21.23
2023-05-13T08:43:49.345Z,24.08
2023-05-13T08:46:18.093Z,29.88
2023-05-13T08:48:45.699Z,29.90
2023-05-13T08:51:12.419Z,29.63
2023-05-13T08:53:39.288Z,27.98
2023-05-13T08:56:12.419Z,28.73
2023-05-13T08:58:38.747Z,29.38
2023-05-13T09:01:06.515Z,29.08
2023-05-13T09:03:34.504Z,28.05
2023-05-13T09:06:02.217Z,30.60
2023-05-13T09:08:28.657Z,26.92
2023-05-13T09:10:55.277Z,25.23
2023-05-13T09:13:24.294Z,25.15
2023-05-13T09:15:50.860Z,25.38
2023-05-13T09:18:19.122Z,28.02
2023-05-13T09:20:46.128Z,20.08
2023-05-13T09:23:15.141Z,19.75
2023-05-13T09:25:41.460Z,21.23
2023-05-13T09:28:08.365Z,22.35
2023-05-13T09:30:37.762Z,24.55
2023-05-13T09:33:07.119Z,24.73
2023-05-13T09:35:34.196Z,24.45
2023-05-13T09:38:00.519Z,24.58
2023-05-13T09:40:27.725Z,25.55
2023-05-13T09:42:57.949Z,26.88
2023-05-13T09:45:25.778Z,24.35
2023-05-13T09:47:54.390Z,23.75
2023-05-13T09:50:21.842Z,22.70
2023-05-13T09:52:49.137Z,21.30
2023-05-13T09:55:15.729Z,21.23
2023-05-13T09:57:42.749Z,22.23
2023-05-13T10:00:15.004Z,21.00
2023-05-13T10:02:48.321Z,19.90
2023-05-13T10:05:17.550Z,19.75
2023-05-13T10:07:44.082Z,18.08
2023-05-13T10:10:11.020Z,19.88
2023-05-13T10:12:40.539Z,18.55
2023-05-13T10:15:09.491Z,17.58
2023-05-13T10:17:37.961Z,20.05
2023-05-13T10:20:05.843Z,18.98
2023-05-13T10:22:33.944Z,15.82
2023-05-13T10:25:02.670Z,16.88
2023-05-13T10:27:30.608Z,16.80
2023-05-13T10:29:58.019Z,16.15
2023-05-13T10:32:26.223Z,15.23
2023-05-13T10:34:57.354Z,15.48
2023-05-13T10:38:05.181Z,14.18
2023-05-13T10:40:52.670Z,14.23
2023-05-13T10:43:20.958Z,15.60
2023-05-13T10:45:49.254Z,14.75
2023-05-13T10:48:17.405Z,14.63
2023-05-13T10:50:55.354Z,15.75
2023-05-13T10:53:24.199Z,15.60
2023-05-13T10:55:55.771Z,14.30
2023-05-13T10:58:28.351Z,16.00
2023-05-13T11:01:12.863Z,13.15
2023-05-13T11:03:40.734Z,14.55
2023-05-13T11:06:18.678Z,11.38
2023-05-13T11:08:46.474Z,11.20
2023-05-13T11:11:34.435Z,11.25
2023-05-13T11:14:10.058Z,10.40
2023-05-13T11:16:37.039Z,10.32
2023-05-13T11:19:08.523Z,8.90
2023-05-13T11:21:38.821Z,9.45
2023-05-13T11:24:07.302Z,9.48
2023-05-13T11:26:44.640Z,12.77
2023-05-13T11:29:10.957Z,8.85
2023-05-13T11:31:46.054Z,9.93
2023-05-13T11:34:15.306Z,11.00
2023-05-13T11:36:45.276Z,9.95
2023-05-13T11:39:14.008Z,9.82
2023-05-13T11:41:42.732Z,10.15
2023-05-13T11:44:11.017Z,9.73
2023-05-13T11:46:37.382Z,10.30
2023-05-13T11:49:05.845Z,11.07
2023-05-13T11:51:34.406Z,9.32
2023-05-13T11:54:02.222Z,9.52
2023-05-13T11:56:29.373Z,11.10
2023-05-13T11:58:56.130Z,9.05
2023-05-13T12:01:22.591Z,7.97
2023-05-13T12:03:48.960Z,8.95
2023-05-13T12:06:18.125Z,7.68
2023-05-13T12:08:45.622Z,7.57
2023-05-13T12:11:12.619Z,7.15
2023-05-13T12:13:40.575Z,6.65
2023-05-13T12:16:07.262Z,8.85
2023-05-13T12:18:33.906Z,6.38
2023-05-13T12:21:00.244Z,7.25
2023-05-13T12:23:36.868Z,6.22
2023-05-13T12:26:07.379Z,6.28
2023-05-13T12:28:33.755Z,5.72
2023-05-13T12:31:04.850Z,5.72
2023-05-13T12:33:40.530Z,6.10
2023-05-13T12:36:19.211Z,6.97
2023-05-13T12:38:54.359Z,5.63
2023-05-13T12:41:22.272Z,5.88
2023-05-13T12:43:48.660Z,5.60
2023-05-13T12:46:15.052Z,5.97
2023-05-13T12:48:43.243Z,5.90
2023-05-13T12:51:09.569Z,5.38
2023-05-13T12:53:35.864Z,6.50
2023-05-13T12:56:02.241Z,7.32
2023-05-13T12:58:29.275Z,6.05
2023-05-13T13:00:55.593Z,5.80
2023-05-13T13:03:24.292Z,6.97
2023-05-13T13:05:51.374Z,6.88
2023-05-13T13:08:17.877Z,6.13
2023-05-13T13:10:44.168Z,5.35
2023-05-13T13:13:10.454Z,7.90
2023-05-13T13:15:37.813Z,5.95
2023-05-13T13:18:04.583Z,7.38
2023-05-13T13:20:30.952Z,6.10
2023-05-13T13:22:59.043Z,5.97
2023-05-13T13:25:26.083Z,6.75
2023-05-13T13:27:52.400Z,5.90
2023-05-13T13:30:21.347Z,6.60
2023-05-13T13:32:48.266Z,6.82
2023-05-13T13:35:14.784Z,6.50
2023-05-13T13:37:41.043Z,6.75
2023-05-13T13:40:08.488Z,6.68
2023-05-13T13:42:43.980Z,6.30
2023-05-13T13:45:12.068Z,5.60
2023-05-13T13:47:38.555Z,5.70
2023-05-13T13:50:06.541Z,5.82
2023-05-13T13:52:32.861Z,5.80
2023-05-13T13:54:59.703Z,7.00
2023-05-13T13:57:25.973Z,6.55
2023-05-13T13:59:57.666Z,5.78
2023-05-13T14:02:23.983Z,6.10
2023-05-13T14:04:50.376Z,6.65
2023-05-13T14:07:17.581Z,6.60
2023-05-13T14:09:43.967Z,6.47
2023-05-13T14:12:10.275Z,6.53
2023-05-13T14:14:36.549Z,5.85
2023-05-13T14:17:03.104Z,5.32
2023-05-13T14:19:29.455Z,5.75
2023-05-13T14:21:55.775Z,5.65
2023-05-13T14:24:22.988Z,5.72
2023-05-13T14:26:49.302Z,5.55
2023-05-13T14:29:15.674Z,4.75
2023-05-13T14:31:42.018Z,5.03
2023-05-13T14:34:08.328Z,4.68
2023-05-13T14:36:35.292Z,5.05
2023-05-13T14:39:01.654Z,4.47
2023-05-13T14:41:29.129Z,4.20
2023-05-13T14:43:55.413Z,3.97
2023-05-13T14:46:21.817Z,4.60
2023-05-13T14:48:48.074Z,6.25
2023-05-13T14:51:14.354Z,4.80
2023-05-13T14:53:41.852Z,4.22
2023-05-13T14:56:08.214Z,4.75
2023-05-13T14:58:35.424Z,4.88
2023-05-13T15:01:01.923Z,5.22
2023-05-13T15:03:28.334Z,4.40
2023-05-13T15:05:55.347Z,4.60
2023-05-13T15:08:21.871Z,4.50
2023-05-13T15:10:48.148Z,4.50
2023-05-13T15:13:14.434Z,4.28
2023-05-13T15:15:41.427Z,4.22
2023-05-13T15:18:07.731Z,3.88
2023-05-13T15:20:34.119Z,3.92
2023-05-13T15:23:00.425Z,5.97
2023-05-13T15:25:26.714Z,4.07
2023-05-13T15:27:53.445Z,6.65
2023-05-13T15:30:20.373Z,4.45
2023-05-13T15:32:47.581Z,5.70
2023-05-13T15:35:15.403Z,3.00
2023-05-13T15:37:42.173Z,5.88
2023-05-13T15:40:09.122Z,4.18
2023-05-13T15:42:36.007Z,5.18
2023-05-13T15:45:02.281Z,4.20
2023-05-13T15:47:28.741Z,4.40
2023-05-13T15:49:55.825Z,4.55
2023-05-13T15:52:22.099Z,5.20
2023-05-13T15:54:48.403Z,3.78
2023-05-13T15:57:14.790Z,4.05
2023-05-13T15:59:41.101Z,3.65
2023-05-13T16:02:07.464Z,3.10
2023-05-13T16:04:33.861Z,3.47
2023-05-13T16:07:00.868Z,3.47
2023-05-13T16:09:27.135Z,4.63
2023-05-13T16:11:54.821Z,3.92
2023-05-13T16:14:21.105Z,3.60
2023-05-13T16:16:47.504Z,4.78
2023-05-13T16:19:13.900Z,3.40
2023-05-13T16:21:40.923Z,3.50
2023-05-13T16:24:07.940Z,4.03
2023-05-13T16:26:34.312Z,3.80
2023-05-13T16:29:00.724Z,4.07
2023-05-13T16:31:27.045Z,4.25
2023-05-13T16:33:53.366Z,4.68
2023-05-13T16:36:19.673Z,3.92
2023-05-13T16:38:46.094Z,4.20
2023-05-13T16:41:13.046Z,4.75
2023-05-13T16:43:39.328Z,5.10
2023-05-13T16:46:05.700Z,5.22
2023-05-13T16:48:32.094Z,4.57
2023-05-13T16:50:58.402Z,5.32
2023-05-13T16:53:25.455Z,4.45
2023-05-13T16:55:51.807Z,4.65
2023-05-13T16:58:18.794Z,4.90
2023-05-13T17:00:45.406Z,5.38
2023-05-13T17:03:12.463Z,5.70
2023-05-13T17:05:38.950Z,4.60
2023-05-13T17:08:05.553Z,4.50
2023-05-13T17:10:31.898Z,4.68
2023-05-13T17:12:58.536Z,4.20
2023-05-13T17:15:25.650Z,3.85
2023-05-13T17:17:51.986Z,4.68
2023-05-13T17:20:18.831Z,3.40
2023-05-13T17:22:46.452Z,3.42
2023-05-13T17:25:12.981Z,3.40
2023-05-13T17:27:39.288Z,3.33
2023-05-13T17:30:06.898Z,3.30
2023-05-13T17:32:34.154Z,3.95
2023-05-13T17:35:00.501Z,2.95
2023-05-13T17:37:26.781Z,4.20
2023-05-13T17:39:54.028Z,3.83
2023-05-13T17:42:21.014Z,3.15
2023-05-13T17:44:47.372Z,3.40
2023-05-13T17:47:13.918Z,3.63
2023-05-13T17:49:40.865Z,4.07
2023-05-13T17:52:07.187Z,4.95
2023-05-13T17:54:33.508Z,3.55
2023-05-13T17:56:59.819Z,3.13
2023-05-13T17:59:26.176Z,3.33
2023-05-13T18:01:52.581Z,3.70
2023-05-13T18:04:18.896Z,3.20
2023-05-13T18:06:45.869Z,4.25
2023-05-13T18:09:12.171Z,3.20
2023-05-13T18:11:38.513Z,2.72
2023-05-13T18:14:06.009Z,3.10
2023-05-13T18:16:32.398Z,3.17
2023-05-13T18:18:58.743Z,3.30
2023-05-13T18:21:26.616Z,4.88
2023-05-13T18:23:53.563Z,3.75
2023-05-13T18:26:20.202Z,3.20
2023-05-13T18:28:46.538Z,3.08
2023-05-13T18:31:12.930Z,7.90
2023-05-13T18:33:39.301Z,2.88
2023-05-13T18:36:06.789Z,3.38
2023-05-13T18:38:33.150Z,2.97
2023-05-13T18:41:02.511Z,43.80
2023-05-13T18:43:29.019Z,30.27
2023-05-13T18:45:57.458Z,14.85
2023-05-13T18:48:24.438Z,6.25
2023-05-13T18:50:52.280Z,5.15
2023-05-13T18:53:18.794Z,4.30
2023-05-13T18:55:45.413Z,3.92
2023-05-13T18:58:12.779Z,3.92
2023-05-13T19:00:39.077Z,5.60
2023-05-13T19:03:05.540Z,4.50
2023-05-13T19:05:32.365Z,4.10
2023-05-13T19:07:59.754Z,3.92
2023-05-13T19:10:26.215Z,6.47
2023-05-13T19:12:52.547Z,3.40
2023-05-13T19:15:20.528Z,4.28
2023-05-13T19:17:46.879Z,3.80
2023-05-13T19:20:13.213Z,4.05
2023-05-13T19:22:39.486Z,4.30
2023-05-13T19:25:06.281Z,4.93
2023-05-13T19:27:32.709Z,6.75
2023-05-13T19:30:00.550Z,4.63
2023-05-13T19:32:27.641Z,4.20
2023-05-13T19:34:54.002Z,2.78
2023-05-13T19:37:20.291Z,2.20
2023-05-13T19:39:46.581Z,2.60
2023-05-13T19:42:14.689Z,1.65
2023-05-13T19:44:41.466Z,1.50
2023-05-13T19:47:08.421Z,4.60
2023-05-13T19:49:35.362Z,2.03
2023-05-13T19:52:01.834Z,2.50
2023-05-13T19:54:28.166Z,1.20
2023-05-13T19:56:54.498Z,1.70
2023-05-13T19:59:20.921Z,2.55
2023-05-13T20:01:47.254Z,1.70
2023-05-13T20:04:13.594Z,1.50
2023-05-13T20:06:40.586Z,2.88
2023-05-13T20:09:07.739Z,2.10
2023-05-13T20:11:34.053Z,3.25
2023-05-13T20:14:00.817Z,3.15
2023-05-13T20:16:28.074Z,2.55
2023-05-13T20:18:54.440Z,2.72
2023-05-13T20:21:20.854Z,2.33
2023-05-13T20:23:47.790Z,2.33
2023-05-13T20:26:14.205Z,2.30
2023-05-13T20:28:40.466Z,2.60
2023-05-13T20:31:06.773Z,2.70
2023-05-13T20:33:33.126Z,2.83
2023-05-13T20:35:59.450Z,2.63
2023-05-13T20:38:25.812Z,3.80
2023-05-13T20:40:52.815Z,3.22
2023-05-13T20:43:19.249Z,3.10
2023-05-13T20:45:45.603Z,6.32
2023-05-13T20:48:12.848Z,3.63
2023-05-13T20:50:39.287Z,3.53
2023-05-13T20:53:05.604Z,4.97
2023-05-13T20:55:32.067Z,4.40
2023-05-13T20:57:59.096Z,5.05
2023-05-13T21:00:25.726Z,6.65
2023-05-13T21:02:53.124Z,4.30
2023-05-13T21:05:19.919Z,4.88
2023-05-13T21:07:46.389Z,4.65
2023-05-13T21:10:12.799Z,7.03
2023-05-13T21:12:39.208Z,5.78
2023-05-13T21:15:07.887Z,5.70
2023-05-13T21:17:34.209Z,6.03
2023-05-13T21:20:00.648Z,7.85
2023-05-13T21:22:26.981Z,6.63
2023-05-13T21:24:53.428Z,6.43
2023-05-13T21:27:20.634Z,5.63
2023-05-13T21:29:47.040Z,5.75
2023-05-13T21:32:14.376Z,5.75
2023-05-13T21:34:40.694Z,10.85
2023-05-13T21:37:06.990Z,8.52
2023-05-13T21:39:33.318Z,6.57
2023-05-13T21:41:59.997Z,7.40
2023-05-13T21:44:26.889Z,8.27
2023-05-13T21:46:53.185Z,8.85
2023-05-13T21:49:20.170Z,7.70
2023-05-13T21:51:46.476Z,8.30
2023-05-13T21:54:12.734Z,6.40
2023-05-13T21:56:39.065Z,6.82
2023-05-13T21:59:05.363Z,6.22
2023-05-13T22:01:31.727Z,6.55
2023-05-13T22:03:58.053Z,6.15
2023-05-13T22:06:25.067Z,7.20
2023-05-13T22:08:51.384Z,6.95
2023-05-13T22:11:17.716Z,5.90
2023-05-13T22:13:43.992Z,7.07
2023-05-13T22:16:11.167Z,7.32
2023-05-13T22:18:38.359Z,8.07
2023-05-13T22:21:04.992Z,6.97
2023-05-13T22:23:32.002Z,7.40
2023-05-13T22:25:58.292Z,6.68
2023-05-13T22:28:24.712Z,9.70
2023-05-13T22:30:51.450Z,16.20
2023-05-13T22:33:18.171Z,19.80
2023-05-13T22:35:44.708Z,16.73
2023-05-13T22:38:11.018Z,15.00
2023-05-13T22:40:37.976Z,16.27
2023-05-13T22:43:04.306Z,15.10
2023-05-13T22:45:30.650Z,19.67
2023-05-13T22:47:56.996Z,23.23
2023-05-13T22:50:24.284Z,19.80
2023-05-13T23:00:33.765Z,26.40
2023-05-13T23:03:00.059Z,25.48
2023-05-13T23:05:26.451Z,34.33
2023-05-13T23:07:52.785Z,36.00
2023-05-13T23:10:19.106Z,36.72
2023-05-13T23:12:45.350Z,37.70
2023-05-13T23:15:14.055Z,39.28
2023-05-13T23:17:40.372Z,44.22
2023-05-13T23:20:07.886Z,41.50
2023-05-13T23:22:34.200Z,44.17
2023-05-13T23:25:00.473Z,42.97
2023-05-13T23:27:26.816Z,41.05
2023-05-13T23:29:53.081Z,38.58
2023-05-13T23:32:20.209Z,43.20
2023-05-13T23:34:46.489Z,40.65
2023-05-13T23:37:14.795Z,38.97
2023-05-13T23:39:41.168Z,45.17
2023-05-13T23:42:07.523Z,40.35
2023-05-13T23:44:33.834Z,39.83
2023-05-13T23:47:00.157Z,42.33
2023-05-13T23:49:27.115Z,37.85
2023-05-13T23:51:53.537Z,37.58
2023-05-13T23:54:19.897Z,40.33
2023-05-13T23:56:46.229Z,36.60
2023-05-13T23:59:12.602Z,35.97
